createdAt,value
2019-06-08T00:00:48.336Z,15.89
2019-06-08T00:01:58.470Z,15.92
2019-06-08T00:03:08.594Z,15.95
2019-06-08T00:04:23.455Z,15.99
2019-06-08T00:05:33.576Z,15.98
2019-06-08T00:06:43.682Z,15.95
2019-06-08T00:07:53.783Z,15.96
2019-06-08T00:09:03.905Z,15.88
2019-06-08T00:10:15.200Z,15.92
2019-06-08T00:11:31.265Z,15.95
2019-06-08T00:12:41.389Z,15.94
2019-06-08T00:13:51.511Z,15.91
2019-06-08T00:15:01.655Z,15.98
2019-06-08T00:16:13.140Z,15.84
2019-06-08T00:17:42.126Z,15.84
2019-06-08T00:18:52.230Z,15.79
2019-06-08T00:20:02.347Z,15.69
2019-06-08T00:21:13.472Z,15.66
2019-06-08T00:22:26.364Z,15.72
2019-06-08T00:23:36.482Z,15.68
2019-06-08T00:24:46.656Z,15.64
2019-06-08T00:25:56.821Z,15.61
2019-06-08T00:27:06.935Z,15.58
2019-06-08T00:28:18.873Z,15.61
2019-06-08T00:29:30.169Z,15.53
2019-06-08T00:30:41.617Z,15.54
2019-06-08T00:31:51.742Z,15.58
2019-06-08T00:33:01.861Z,15.48
2019-06-08T00:34:12.000Z,15.43
2019-06-08T00:35:24.827Z,15.43
2019-06-08T00:36:35.030Z,15.42
2019-06-08T00:37:45.149Z,15.46
2019-06-08T00:38:55.295Z,15.45
2019-06-08T00:40:05.411Z,15.43
2019-06-08T00:41:15.532Z,15.45
2019-06-08T00:42:30.487Z,15.39
2019-06-08T00:43:40.615Z,15.35
2019-06-08T00:44:50.773Z,15.39
2019-06-08T00:46:00.923Z,15.4
2019-06-08T00:47:11.108Z,15.38
2019-06-08T00:48:24.595Z,15.36
2019-06-08T00:49:34.766Z,15.29
2019-06-08T00:50:44.868Z,15.32
2019-06-08T00:51:54.990Z,15.21
2019-06-08T00:53:05.106Z,15.23
2019-06-08T00:54:15.211Z,15.24
2019-06-08T00:55:28.122Z,15.17
2019-06-08T00:56:38.348Z,15.27
2019-06-08T00:57:48.460Z,15.08
2019-06-08T00:58:58.607Z,15.03
2019-06-08T01:00:15.330Z,15.11
2019-06-08T01:01:30.966Z,15.08
2019-06-08T01:02:40.538Z,15.08
2019-06-08T01:03:50.651Z,15.08
2019-06-08T01:05:00.755Z,15.09
2019-06-08T01:06:10.859Z,15.23
2019-06-08T01:07:22.318Z,15.21
2019-06-08T01:08:32.423Z,15.21
2019-06-08T01:09:42.532Z,15.2
2019-06-08T01:10:52.651Z,15.32
2019-06-08T01:12:02.458Z,15.27
2019-06-08T01:13:12.593Z,15.23
2019-06-08T01:14:25.320Z,15.25
2019-06-08T01:15:39.327Z,15.27
2019-06-08T01:16:49.497Z,15.21
2019-06-08T01:18:08.640Z,15.21
2019-06-08T01:19:19.158Z,15.18
2019-06-08T01:20:31.867Z,15.24
2019-06-08T01:21:41.987Z,15.17
2019-06-08T01:22:52.095Z,15.13
2019-06-08T01:24:02.207Z,15.03
2019-06-08T01:25:12.326Z,15.05
2019-06-08T01:26:23.896Z,15.11
2019-06-08T01:27:35.480Z,15.09
2019-06-08T01:28:45.608Z,15.08
2019-06-08T01:29:55.725Z,15
2019-06-08T01:31:05.916Z,14.98
2019-06-08T01:32:16.052Z,14.96
2019-06-08T01:33:28.702Z,14.95
2019-06-08T01:34:38.880Z,14.87
2019-06-08T01:35:48.993Z,14.9
2019-06-08T01:36:59.124Z,14.9
2019-06-08T01:38:09.238Z,14.83
2019-06-08T01:39:19.404Z,14.81
2019-06-08T01:40:32.026Z,14.7
2019-06-08T01:41:42.145Z,14.65
2019-06-08T01:42:53.253Z,14.66
2019-06-08T01:44:03.371Z,14.56
2019-06-08T01:45:13.475Z,14.56
2019-06-08T01:46:24.334Z,14.58
2019-06-08T01:47:37.310Z,14.5
2019-06-08T01:48:47.420Z,14.36
2019-06-08T01:49:57.529Z,14.32
2019-06-08T01:51:07.647Z,14.29
2019-06-08T01:52:17.817Z,14.24
2019-06-08T01:53:29.263Z,14.37
2019-06-08T01:54:40.733Z,14.22
2019-06-08T01:55:50.607Z,14.37
2019-06-08T01:57:00.711Z,14.32
2019-06-08T01:58:10.833Z,14.39
2019-06-08T01:59:20.978Z,14.39
2019-06-08T02:00:43.869Z,14.24
2019-06-08T02:01:53.983Z,14.32
2019-06-08T02:03:04.107Z,14.24
2019-06-08T02:04:14.231Z,14.16
2019-06-08T02:05:24.328Z,14.11
2019-06-08T02:06:37.027Z,14.14
2019-06-08T02:07:47.235Z,14.03
2019-06-08T02:08:57.357Z,13.92
2019-06-08T02:10:07.252Z,13.85
2019-06-08T02:11:17.370Z,13.79
2019-06-08T02:12:27.273Z,13.71
2019-06-08T02:13:39.834Z,13.79
2019-06-08T02:14:49.951Z,13.81
2019-06-08T02:16:00.085Z,13.85
2019-06-08T02:17:10.217Z,13.95
2019-06-08T02:18:35.313Z,13.99
2019-06-08T02:19:58.142Z,14.14
2019-06-08T02:21:08.269Z,14.06
2019-06-08T02:22:18.377Z,14.22
2019-06-08T02:23:29.407Z,14.25
2019-06-08T02:24:42.033Z,14.25
2019-06-08T02:25:52.134Z,14.31
2019-06-08T02:27:02.246Z,14.4
2019-06-08T02:28:12.366Z,14.4
2019-06-08T02:29:22.499Z,14.39
2019-06-08T02:30:39.625Z,14.4
2019-06-08T02:31:53.154Z,14.48
2019-06-08T02:33:03.261Z,14.47
2019-06-08T02:34:13.430Z,14.51
2019-06-08T02:35:23.550Z,14.5
2019-06-08T02:36:38.302Z,14.54
2019-06-08T02:37:48.654Z,14.56
2019-06-08T02:38:58.787Z,14.58
2019-06-08T02:40:08.901Z,14.54
2019-06-08T02:41:19.034Z,14.65
2019-06-08T02:42:33.035Z,14.69
2019-06-08T02:43:45.663Z,14.69
2019-06-08T02:44:55.830Z,14.58
2019-06-08T02:46:05.936Z,14.58
2019-06-08T02:47:18.886Z,14.47
2019-06-08T02:48:29.481Z,14.5
2019-06-08T02:50:05.687Z,14.4
2019-06-08T02:51:15.913Z,14.39
2019-06-08T02:52:26.083Z,14.24
2019-06-08T02:53:44.051Z,14.26
2019-06-08T02:54:54.175Z,14.26
2019-06-08T02:56:04.304Z,14.14
2019-06-08T02:57:14.426Z,14.09
2019-06-08T02:58:24.548Z,14.1
2019-06-08T02:59:40.534Z,14.04
2019-06-08T03:00:50.857Z,13.94
2019-06-08T03:02:00.968Z,13.79
2019-06-08T03:03:11.105Z,13.79
2019-06-08T03:05:41.881Z,13.63
2019-06-08T03:06:52.037Z,13.59
2019-06-08T03:08:02.151Z,13.61
2019-06-08T03:09:12.323Z,13.59
2019-06-08T03:10:22.460Z,13.64
2019-06-08T03:11:34.372Z,13.58
2019-06-08T03:12:47.538Z,13.58
2019-06-08T03:13:57.645Z,13.7
2019-06-08T03:15:07.759Z,13.71
2019-06-08T03:16:17.870Z,13.76
2019-06-08T03:17:28.027Z,13.82
2019-06-08T03:18:44.921Z,13.88
2019-06-08T03:19:55.051Z,13.82
2019-06-08T03:21:05.189Z,13.77
2019-06-08T03:22:15.806Z,13.81
2019-06-08T03:23:25.954Z,13.88
2019-06-08T03:24:41.532Z,13.88
2019-06-08T03:25:58.147Z,13.79
2019-06-08T03:27:08.333Z,13.74
2019-06-08T03:28:18.451Z,13.76
2019-06-08T03:29:28.585Z,13.76
2019-06-08T03:30:57.159Z,13.76
2019-06-08T03:32:07.352Z,13.73
2019-06-08T03:33:17.576Z,13.67
2019-06-08T03:34:27.788Z,13.56
2019-06-08T03:36:00.515Z,13.51
2019-06-08T03:37:10.282Z,13.41
2019-06-08T03:38:20.461Z,13.34
2019-06-08T03:39:30.386Z,13.31
2019-06-08T03:40:45.715Z,13.36
2019-06-08T03:41:55.837Z,13.4
2019-06-08T03:43:06.766Z,13.45
2019-06-08T03:44:16.932Z,13.34
2019-06-08T03:45:27.110Z,13.36
2019-06-08T03:46:39.273Z,13.34
2019-06-08T03:47:54.094Z,13.33
2019-06-08T03:49:06.688Z,13.33
2019-06-08T03:50:16.808Z,13.29
2019-06-08T03:51:26.942Z,13.27
2019-06-08T03:52:46.446Z,13.12
2019-06-08T03:53:56.597Z,13.18
2019-06-08T03:55:06.731Z,13.08
2019-06-08T03:56:16.873Z,13.13
2019-06-08T03:57:26.975Z,13.08
2019-06-08T03:58:42.590Z,12.92
2019-06-08T03:59:55.518Z,12.89
2019-06-08T04:01:05.680Z,12.92
2019-06-08T04:02:15.817Z,13
2019-06-08T04:03:25.947Z,12.95
2019-06-08T04:04:37.784Z,12.85
2019-06-08T04:05:52.593Z,13.03
2019-06-08T04:07:02.724Z,12.88
2019-06-08T04:08:12.859Z,12.97
2019-06-08T04:09:22.743Z,12.95
2019-06-08T04:10:32.982Z,13.04
2019-06-08T04:11:50.265Z,13.04
2019-06-08T04:13:00.550Z,13
2019-06-08T04:14:10.685Z,13.04
2019-06-08T04:15:20.791Z,13.01
2019-06-08T04:16:30.897Z,13.06
2019-06-08T04:17:44.065Z,13.03
2019-06-08T04:18:55.823Z,13.11
2019-06-08T04:20:15.748Z,13.04
2019-06-08T04:21:25.920Z,13.04
2019-06-08T04:22:35.793Z,13.03
2019-06-08T04:23:50.716Z,13.11
2019-06-08T04:25:00.920Z,13.06
2019-06-08T04:26:11.069Z,13.01
2019-06-08T04:27:21.183Z,13.13
2019-06-08T04:28:31.336Z,13.12
2019-06-08T04:29:45.896Z,13.03
2019-06-08T04:30:58.011Z,13.01
2019-06-08T04:32:08.136Z,13.06
2019-06-08T04:33:18.242Z,12.95
2019-06-08T04:34:28.350Z,13
2019-06-08T04:35:42.520Z,12.97
2019-06-08T04:36:56.203Z,13.08
2019-06-08T04:38:06.344Z,13.01
2019-06-08T04:39:16.472Z,12.97
2019-06-08T04:40:26.611Z,13.06
2019-06-08T04:41:38.433Z,12.97
2019-06-08T04:42:55.522Z,13.11
2019-06-08T04:44:05.313Z,13.12
2019-06-08T04:45:15.449Z,13.19
2019-06-08T04:46:25.574Z,13.21
2019-06-08T04:47:35.729Z,13.22
2019-06-08T04:48:52.272Z,13.21
2019-06-08T04:50:24.265Z,13.16
2019-06-08T04:51:34.511Z,13.26
2019-06-08T04:52:49.880Z,13.34
2019-06-08T04:54:00.176Z,13.33
2019-06-08T04:55:10.320Z,13.34
2019-06-08T04:56:20.448Z,13.33
2019-06-08T04:57:30.201Z,13.33
2019-06-08T04:58:46.011Z,13.34
2019-06-08T04:59:58.782Z,13.41
2019-06-08T05:01:19.647Z,13.41
2019-06-08T05:04:09.164Z,13.46
2019-06-08T05:05:19.303Z,13.44
2019-06-08T05:06:29.454Z,13.56
2019-06-08T05:07:41.884Z,13.58
2019-06-08T05:08:56.029Z,13.67
2019-06-08T05:10:06.254Z,13.52
2019-06-08T05:11:16.363Z,13.56
2019-06-08T05:12:26.504Z,13.61
2019-06-08T05:13:36.674Z,13.66
2019-06-08T05:14:49.968Z,13.79
2019-06-08T05:15:59.822Z,13.79
2019-06-08T05:17:09.709Z,13.82
2019-06-08T05:18:19.835Z,13.84
2019-06-08T05:19:34.826Z,13.91
2019-06-08T05:20:52.510Z,13.95
2019-06-08T05:22:02.634Z,13.91
2019-06-08T05:23:12.769Z,13.94
2019-06-08T05:24:22.889Z,14.02
2019-06-08T05:25:33.005Z,14.03
2019-06-08T05:26:47.156Z,13.91
2019-06-08T05:27:57.538Z,13.86
2019-06-08T05:29:07.641Z,13.91
2019-06-08T05:30:17.791Z,13.94
2019-06-08T05:31:27.914Z,13.88
2019-06-08T05:32:39.352Z,13.92
2019-06-08T05:33:52.189Z,13.89
2019-06-08T05:35:02.305Z,14.02
2019-06-08T05:36:12.453Z,14
2019-06-08T05:37:22.586Z,14.04
2019-06-08T05:38:32.722Z,14.02
2019-06-08T05:39:43.903Z,13.99
2019-06-08T05:40:55.538Z,14.06
2019-06-08T05:42:05.406Z,14.09
2019-06-08T05:43:15.534Z,14.09
2019-06-08T05:44:25.751Z,14.06
2019-06-08T05:45:35.617Z,14.11
2019-06-08T05:46:48.142Z,14.11
2019-06-08T05:47:58.261Z,14.13
2019-06-08T05:49:08.364Z,14.07
2019-06-08T05:50:18.491Z,14.18
2019-06-08T05:51:28.630Z,14.06
2019-06-08T05:52:39.836Z,14.04
2019-06-08T05:53:52.674Z,14.03
2019-06-08T05:55:02.829Z,13.89
2019-06-08T05:56:12.977Z,13.84
2019-06-08T05:57:23.104Z,13.82
2019-06-08T05:58:33.216Z,13.88
2019-06-08T05:59:46.087Z,13.76
2019-06-08T06:00:56.349Z,13.79
2019-06-08T06:02:06.465Z,13.77
2019-06-08T06:03:16.595Z,13.7
2019-06-08T06:04:26.741Z,13.7
2019-06-08T06:05:36.609Z,13.74
2019-06-08T06:06:49.214Z,13.63
2019-06-08T06:07:59.162Z,13.69
2019-06-08T06:09:23.322Z,13.71
2019-06-08T06:10:33.455Z,13.73
2019-06-08T06:11:44.913Z,13.69
2019-06-08T06:12:56.491Z,13.64
2019-06-08T06:14:06.654Z,13.63
2019-06-08T06:15:16.812Z,13.69
2019-06-08T06:16:26.967Z,13.77
2019-06-08T06:17:37.101Z,13.77
2019-06-08T06:18:52.366Z,13.71
2019-06-08T06:20:02.542Z,13.58
2019-06-08T06:21:16.854Z,13.59
2019-06-08T06:22:27.033Z,13.67
2019-06-08T06:23:37.172Z,13.63
2019-06-08T06:24:50.035Z,13.61
2019-06-08T06:25:59.933Z,13.59
2019-06-08T06:27:09.825Z,13.59
2019-06-08T06:28:19.941Z,13.56
2019-06-08T06:29:30.087Z,13.59
2019-06-08T06:30:41.491Z,13.59
2019-06-08T06:31:54.706Z,13.55
2019-06-08T06:33:04.842Z,13.59
2019-06-08T06:34:14.953Z,13.54
2019-06-08T06:35:25.091Z,13.52
2019-06-08T06:36:35.236Z,13.46
2019-06-08T06:37:46.233Z,13.48
2019-06-08T06:38:57.984Z,13.58
2019-06-08T06:40:08.116Z,13.55
2019-06-08T06:41:18.258Z,13.64
2019-06-08T06:42:29.960Z,13.59
2019-06-08T06:43:40.072Z,13.64
2019-06-08T06:44:53.015Z,13.66
2019-06-08T06:46:03.148Z,13.73
2019-06-08T06:47:13.019Z,13.69
2019-06-08T06:48:25.920Z,13.71
2019-06-08T06:49:36.083Z,13.77
2019-06-08T06:50:48.732Z,13.85
2019-06-08T06:51:58.860Z,13.84
2019-06-08T06:53:08.991Z,13.86
2019-06-08T06:54:19.126Z,13.95
2019-06-08T06:55:30.416Z,13.96
2019-06-08T06:56:40.532Z,13.99
2019-06-08T06:57:53.427Z,14.03
2019-06-08T06:59:03.708Z,14.14
2019-06-08T07:00:13.850Z,14.11
2019-06-08T07:01:23.990Z,14.14
2019-06-08T07:02:34.131Z,14.11
2019-06-08T07:03:44.291Z,14.13
2019-06-08T07:04:57.076Z,14.16
2019-06-08T07:06:07.513Z,14.1
2019-06-08T07:07:17.628Z,14.13
2019-06-08T07:08:27.916Z,14.09
2019-06-08T07:09:38.113Z,14.09
2019-06-08T07:10:51.001Z,14.18
2019-06-08T07:12:01.716Z,14.19
2019-06-08T07:13:11.835Z,14.25
2019-06-08T07:14:21.719Z,14.28
2019-06-08T07:15:31.842Z,14.31
2019-06-08T07:16:51.902Z,14.36
2019-06-08T07:18:03.383Z,14.39
2019-06-08T07:19:13.029Z,14.36
2019-06-08T07:20:23.168Z,14.56
2019-06-08T07:21:46.184Z,14.56
2019-06-08T07:22:59.337Z,14.52
2019-06-08T07:24:09.224Z,14.63
2019-06-08T07:25:19.356Z,14.62
2019-06-08T07:26:29.495Z,14.63
2019-06-08T07:27:39.676Z,14.66
2019-06-08T07:28:52.496Z,14.69
2019-06-08T07:30:04.476Z,14.75
2019-06-08T07:31:15.685Z,14.74
2019-06-08T07:32:25.828Z,14.74
2019-06-08T07:33:36.028Z,14.74
2019-06-08T07:34:46.680Z,14.81
2019-06-08T07:36:00.163Z,14.87
2019-06-08T07:37:10.300Z,14.98
2019-06-08T07:38:20.451Z,14.96
2019-06-08T07:39:30.615Z,14.96
2019-06-08T07:40:40.732Z,15.06
2019-06-08T07:41:54.103Z,15.14
2019-06-08T07:43:05.456Z,15.13
2019-06-08T07:44:15.596Z,15.25
2019-06-08T07:45:25.735Z,15.17
2019-06-08T07:46:35.864Z,15.36
2019-06-08T07:47:46.004Z,15.35
2019-06-08T07:48:58.968Z,15.42
2019-06-08T07:50:09.792Z,15.32
2019-06-08T07:51:19.929Z,15.45
2019-06-08T07:52:30.053Z,15.5
2019-06-08T07:53:40.239Z,15.48
2019-06-08T07:54:52.790Z,15.45
2019-06-08T07:56:04.771Z,15.51
2019-06-08T07:57:14.648Z,15.54
2019-06-08T07:58:24.803Z,15.61
2019-06-08T07:59:34.695Z,15.54
2019-06-08T08:00:44.874Z,15.61
2019-06-08T08:01:58.903Z,15.55
2019-06-08T08:03:09.027Z,15.69
2019-06-08T08:04:19.176Z,15.76
2019-06-08T08:05:29.311Z,15.91
2019-06-08T08:06:39.462Z,15.96
2019-06-08T08:07:50.795Z,15.96
2019-06-08T08:09:03.751Z,15.98
2019-06-08T08:10:14.251Z,16.07
2019-06-08T08:11:24.984Z,16.09
2019-06-08T08:12:35.118Z,16.07
2019-06-08T08:13:45.276Z,16.06
2019-06-08T08:15:02.115Z,16.1
2019-06-08T08:16:12.285Z,16.21
2019-06-08T08:17:22.412Z,16.31
2019-06-08T08:18:32.554Z,16.43
2019-06-08T08:19:42.666Z,16.5
2019-06-08T08:20:58.056Z,16.56
2019-06-08T08:22:32.309Z,16.68
2019-06-08T08:23:43.640Z,16.69
2019-06-08T08:25:08.016Z,16.64
2019-06-08T08:26:18.339Z,16.56
2019-06-08T08:27:30.501Z,16.59
2019-06-08T08:28:43.000Z,16.44
2019-06-08T08:29:58.558Z,16.43
2019-06-08T08:31:15.312Z,16.25
2019-06-08T08:32:28.254Z,16.24
2019-06-08T08:33:40.168Z,16.1
2019-06-08T08:34:54.245Z,16.06
2019-06-08T08:36:09.762Z,16.07
2019-06-08T08:37:22.376Z,16.2
2019-06-08T08:38:33.539Z,16.28
2019-06-08T08:39:47.296Z,16.32
2019-06-08T08:41:10.795Z,16.42
2019-06-08T08:42:23.679Z,16.47
2019-06-08T08:43:37.674Z,16.69
2019-06-08T08:44:48.598Z,16.76
2019-06-08T08:46:07.630Z,16.84
2019-06-08T08:47:18.662Z,16.86
2019-06-08T08:48:34.217Z,16.84
2019-06-08T08:49:47.835Z,16.87
2019-06-08T08:51:05.661Z,17.06
2019-06-08T08:52:17.441Z,17.04
2019-06-08T08:53:45.615Z,17.06
2019-06-08T08:55:04.734Z,17.21
2019-06-08T08:56:18.078Z,17.21
2019-06-08T08:57:28.840Z,17.19
2019-06-08T08:58:40.573Z,17.11
2019-06-08T09:00:03.092Z,17.04
2019-06-08T09:01:17.645Z,16.99
2019-06-08T09:02:32.598Z,16.8
2019-06-08T09:03:45.214Z,16.72
2019-06-08T09:05:08.323Z,16.66
2019-06-08T09:06:20.627Z,16.59
2019-06-08T09:07:33.307Z,16.65
2019-06-08T09:08:48.378Z,16.59
2019-06-08T09:10:08.509Z,16.75
2019-06-08T09:11:23.611Z,17.02
2019-06-08T09:12:37.630Z,17.19
2019-06-08T09:13:48.793Z,17.58
2019-06-08T09:15:11.105Z,17.89
2019-06-08T09:16:22.644Z,18.01
2019-06-08T09:17:34.195Z,17.89
2019-06-08T09:18:47.957Z,17.87
2019-06-08T09:20:08.857Z,17.76
2019-06-08T09:21:24.935Z,17.97
2019-06-08T09:22:59.506Z,18.26
2019-06-08T09:24:28.576Z,18.1
2019-06-08T09:25:42.652Z,18.16
2019-06-08T09:27:07.758Z,18.22
2019-06-08T09:28:21.013Z,18.12
2019-06-08T09:29:33.900Z,18.22
2019-06-08T09:30:48.351Z,18.28
2019-06-08T09:32:07.974Z,18.69
2019-06-08T09:33:21.166Z,18.62
2019-06-08T09:34:34.139Z,18.69
2019-06-08T09:35:47.873Z,18.71
2019-06-08T09:37:07.833Z,18.71
2019-06-08T09:38:20.928Z,18.84
2019-06-08T09:39:34.093Z,19.37
2019-06-08T09:40:48.715Z,19.58
2019-06-08T09:42:08.961Z,19.93
2019-06-08T09:43:21.413Z,20.27
2019-06-08T09:44:34.252Z,20.46
2019-06-08T09:45:48.118Z,20.71
2019-06-08T09:47:12.467Z,20.88
2019-06-08T09:48:23.603Z,20.85
2019-06-08T09:49:37.675Z,20.57
2019-06-08T09:50:48.608Z,20.45
2019-06-08T09:52:04.069Z,20.12
2019-06-08T09:53:41.540Z,19.86
2019-06-08T09:54:54.249Z,19.88
2019-06-08T09:56:14.917Z,19.82
2019-06-08T09:57:28.391Z,19.63
2019-06-08T09:58:39.048Z,19.68
2019-06-08T09:59:50.711Z,19.64
2019-06-08T10:01:13.774Z,20
2019-06-08T10:02:28.314Z,20.04
2019-06-08T10:03:41.516Z,20.34
2019-06-08T10:04:54.170Z,20.51
2019-06-08T10:06:18.190Z,20.53
2019-06-08T10:07:33.574Z,20.34
2019-06-08T10:08:48.012Z,20.3
2019-06-08T10:10:07.091Z,20.05
2019-06-08T10:11:19.618Z,19.85
2019-06-08T10:12:30.725Z,19.78
2019-06-08T10:13:50.160Z,19.82
2019-06-08T10:15:08.138Z,20.01
2019-06-08T10:16:20.886Z,20.14
2019-06-08T10:17:37.704Z,20.42
2019-06-08T10:18:54.956Z,20.26
2019-06-08T10:20:15.725Z,20.56
2019-06-08T10:21:30.366Z,20.57
2019-06-08T10:22:40.274Z,20.61
2019-06-08T10:23:54.746Z,20.51
2019-06-08T10:25:15.747Z,20.34
2019-06-08T10:26:27.945Z,20.42
2019-06-08T10:27:40.991Z,20.45
2019-06-08T10:28:55.219Z,20.81
2019-06-08T10:30:14.710Z,21.18
2019-06-08T10:31:44.438Z,21.57
2019-06-08T10:33:00.549Z,21.88
2019-06-08T10:34:16.327Z,21.98
2019-06-08T10:35:30.745Z,22.18
2019-06-08T10:36:43.625Z,22.27
2019-06-08T10:38:02.482Z,22.46
2019-06-08T10:39:19.621Z,22.57
2019-06-08T10:40:31.150Z,22.76
2019-06-08T10:41:43.631Z,22.73
2019-06-08T10:43:04.475Z,22.65
2019-06-08T10:45:36.271Z,22.58
2019-06-08T10:46:48.183Z,22.33
2019-06-08T10:48:04.194Z,22.63
2019-06-08T10:49:21.333Z,22.82
2019-06-08T10:50:34.136Z,22.95
2019-06-08T10:51:48.460Z,22.99
2019-06-08T10:53:05.746Z,23.01
2019-06-08T10:54:22.413Z,22.86
2019-06-08T10:55:33.194Z,22.7
2019-06-08T10:56:50.945Z,22.68
2019-06-08T10:58:06.304Z,22.7
2019-06-08T10:59:21.019Z,22.7
2019-06-08T11:00:33.197Z,22.61
2019-06-08T11:01:44.297Z,22.65
2019-06-08T11:02:54.565Z,22.78
2019-06-08T11:04:12.074Z,22.96
2019-06-08T11:05:28.103Z,23.09
2019-06-08T11:06:42.411Z,23.06
2019-06-08T11:07:53.360Z,23.18
2019-06-08T11:09:18.795Z,23.28
2019-06-08T11:10:29.403Z,23.36
2019-06-08T11:11:40.808Z,23.42
2019-06-08T11:12:53.613Z,23.24
2019-06-08T11:14:22.708Z,23.09
2019-06-08T11:15:34.788Z,23.14
2019-06-08T11:16:47.556Z,23.33
2019-06-08T11:18:04.822Z,23.27
2019-06-08T11:19:25.710Z,23.14
2019-06-08T11:20:38.164Z,23.11
2019-06-08T11:21:50.582Z,23.2
2019-06-08T11:23:12.498Z,23.33
2019-06-08T11:24:31.450Z,23.31
2019-06-08T11:25:44.111Z,23.2
2019-06-08T11:26:57.726Z,23.08
2019-06-08T11:28:18.542Z,23.02
2019-06-08T11:29:30.803Z,22.75
2019-06-08T11:30:43.655Z,22.61
2019-06-08T11:31:58.248Z,22.53
2019-06-08T11:33:15.017Z,22.45
2019-06-08T11:34:28.670Z,22.33
2019-06-08T11:35:40.782Z,22.31
2019-06-08T11:36:54.283Z,22.49
2019-06-08T11:38:17.429Z,22.53
2019-06-08T11:39:31.101Z,22.63
2019-06-08T11:40:43.656Z,22.73
2019-06-08T11:41:55.683Z,22.8
2019-06-08T11:43:10.990Z,23.01
2019-06-08T11:44:23.667Z,22.76
2019-06-08T11:45:37.829Z,22.55
2019-06-08T11:46:50.231Z,22.38
2019-06-08T11:48:06.375Z,22.42
2019-06-08T11:49:21.166Z,22.48
2019-06-08T11:50:33.472Z,22.61
2019-06-08T11:51:50.360Z,22.57
2019-06-08T11:53:03.957Z,22.6
2019-06-08T11:54:43.117Z,22.67
2019-06-08T11:55:58.520Z,22.8
2019-06-08T11:57:13.518Z,23.02
2019-06-08T11:58:28.244Z,23.2
2019-06-08T11:59:42.461Z,23.36
2019-06-08T12:00:53.947Z,23.46
2019-06-08T12:02:18.449Z,23.4
2019-06-08T12:03:30.719Z,23.14
2019-06-08T12:04:45.438Z,23.01
2019-06-08T12:05:58.140Z,23.16
2019-06-08T12:08:28.351Z,23.14
2019-06-08T12:09:38.844Z,23.09
2019-06-08T12:10:51.597Z,22.87
2019-06-08T12:12:09.975Z,22.73
2019-06-08T12:13:30.310Z,22.33
2019-06-08T12:14:43.137Z,22.02
2019-06-08T12:15:55.500Z,21.94
2019-06-08T12:17:18.792Z,21.71
2019-06-08T12:18:32.912Z,21.75
2019-06-08T12:19:47.565Z,21.81
2019-06-08T12:20:58.279Z,21.81
2019-06-08T12:22:17.904Z,21.73
2019-06-08T12:23:29.736Z,21.57
2019-06-08T12:24:46.766Z,21.49
2019-06-08T12:25:56.926Z,21.6
2019-06-08T12:27:36.198Z,21.61
2019-06-08T12:28:48.596Z,21.35
2019-06-08T12:30:08.020Z,21.19
2019-06-08T12:31:33.036Z,21.1
2019-06-08T12:32:47.813Z,21.09
2019-06-08T12:33:58.729Z,21.09
2019-06-08T12:35:12.694Z,20.97
2019-06-08T12:36:28.706Z,20.93
2019-06-08T12:37:43.654Z,20.81
2019-06-08T12:39:01.037Z,20.56
2019-06-08T12:40:19.363Z,20.39
2019-06-08T12:41:37.699Z,20.31
2019-06-08T12:42:48.106Z,20.31
2019-06-08T12:44:00.210Z,20.35
2019-06-08T12:45:11.741Z,20.28
2019-06-08T12:46:27.927Z,20.28
2019-06-08T12:47:40.606Z,20.28
2019-06-08T12:48:53.251Z,20.42
2019-06-08T12:50:08.209Z,20.48
2019-06-08T12:51:24.414Z,20.63
2019-06-08T12:52:35.980Z,20.67
2019-06-08T12:53:48.699Z,20.76
2019-06-08T12:55:19.888Z,20.75
2019-06-08T12:56:33.789Z,20.82
2019-06-08T12:57:45.636Z,20.86
2019-06-08T12:59:00.413Z,20.81
2019-06-08T13:00:19.676Z,20.72
2019-06-08T13:01:32.998Z,20.73
2019-06-08T13:02:43.606Z,20.86
2019-06-08T13:03:58.067Z,20.86
2019-06-08T13:05:16.447Z,20.94
2019-06-08T13:06:33.362Z,20.79
2019-06-08T13:07:47.462Z,20.78
2019-06-08T13:09:00.168Z,20.61
2019-06-08T13:10:11.365Z,20.57
2019-06-08T13:11:30.739Z,20.57
2019-06-08T13:12:43.360Z,20.66
2019-06-08T13:13:55.861Z,20.75
2019-06-08T13:15:08.026Z,20.57
2019-06-08T13:16:28.360Z,20.53
2019-06-08T13:17:40.527Z,20.51
2019-06-08T13:18:52.993Z,20.54
2019-06-08T13:20:04.155Z,20.71
2019-06-08T13:21:38.408Z,20.85
2019-06-08T13:22:50.699Z,21
2019-06-08T13:24:05.549Z,20.86
2019-06-08T13:25:44.002Z,20.75
2019-06-08T13:26:57.875Z,20.54
2019-06-08T13:28:19.100Z,20.38
2019-06-08T13:29:33.936Z,20.31
2019-06-08T13:30:44.115Z,20.21
2019-06-08T13:31:55.768Z,20.2
2019-06-08T13:33:11.681Z,20.19
2019-06-08T13:34:28.391Z,20.19
2019-06-08T13:35:41.851Z,20.19
2019-06-08T13:36:53.549Z,20.08
2019-06-08T13:38:03.685Z,20.05
2019-06-08T13:39:19.331Z,19.97
2019-06-08T13:40:33.353Z,20
2019-06-08T13:41:48.162Z,19.93
2019-06-08T13:43:00.707Z,19.9
2019-06-08T13:44:13.966Z,19.85
2019-06-08T13:45:30.380Z,19.76
2019-06-08T13:46:42.760Z,19.58
2019-06-08T13:47:58.650Z,19.42
2019-06-08T13:49:12.055Z,19.34
2019-06-08T13:50:28.656Z,19.33
2019-06-08T13:51:40.907Z,19.34
2019-06-08T13:52:55.961Z,19.34
2019-06-08T13:54:08.456Z,19.34
2019-06-08T13:55:56.567Z,19.56
2019-06-08T13:57:08.493Z,19.45
2019-06-08T13:58:29.607Z,19.52
2019-06-08T13:59:44.023Z,19.52
2019-06-08T14:01:02.614Z,19.56
2019-06-08T14:02:18.738Z,19.46
2019-06-08T14:03:38.739Z,19.55
2019-06-08T14:04:51.676Z,19.52
2019-06-08T14:06:04.589Z,19.52
2019-06-08T14:07:25.591Z,19.49
2019-06-08T14:08:43.747Z,19.55
2019-06-08T14:10:00.699Z,19.67
2019-06-08T14:11:13.126Z,19.68
2019-06-08T14:12:33.221Z,19.64
2019-06-08T14:13:48.006Z,19.6
2019-06-08T14:15:00.779Z,19.56
2019-06-08T14:16:20.150Z,19.58
2019-06-08T14:17:35.145Z,19.76
2019-06-08T14:18:45.749Z,19.8
2019-06-08T14:19:58.797Z,19.76
2019-06-08T14:21:09.555Z,19.78
2019-06-08T14:22:24.815Z,19.8
2019-06-08T14:23:38.609Z,19.85
2019-06-08T14:24:53.770Z,19.9
2019-06-08T14:26:05.198Z,19.88
2019-06-08T14:27:16.887Z,19.86
2019-06-08T14:28:30.718Z,19.97
2019-06-08T14:29:43.433Z,19.98
2019-06-08T14:30:56.285Z,20
2019-06-08T14:32:07.816Z,20.01
2019-06-08T14:33:31.067Z,20.04
2019-06-08T14:34:43.827Z,20.01
2019-06-08T14:36:01.504Z,19.93
2019-06-08T14:37:13.649Z,19.95
2019-06-08T14:38:41.902Z,19.95
2019-06-08T14:39:54.906Z,19.93
2019-06-08T14:41:07.456Z,19.93
2019-06-08T14:42:23.006Z,19.93
2019-06-08T14:43:40.697Z,19.88
2019-06-08T14:44:53.155Z,19.82
2019-06-08T14:46:07.879Z,19.79
2019-06-08T14:47:18.734Z,19.97
2019-06-08T14:48:37.906Z,19.98
2019-06-08T14:49:53.549Z,19.98
2019-06-08T14:51:04.332Z,19.95
2019-06-08T14:52:18.769Z,20.17
2019-06-08T14:53:35.121Z,20.01
2019-06-08T14:54:48.162Z,20
2019-06-08T14:56:12.659Z,20
2019-06-08T14:57:28.140Z,19.97
2019-06-08T14:58:41.052Z,19.95
2019-06-08T14:59:59.864Z,19.88
2019-06-08T15:01:22.998Z,19.93
2019-06-08T15:02:37.959Z,19.85
2019-06-08T15:03:50.559Z,19.83
2019-06-08T15:05:00.733Z,19.83
2019-06-08T15:06:13.264Z,19.88
2019-06-08T15:07:33.693Z,19.89
2019-06-08T15:08:49.863Z,19.83
2019-06-08T15:10:02.973Z,19.83
2019-06-08T15:11:17.867Z,19.8
2019-06-08T15:12:32.049Z,19.8
2019-06-08T15:13:48.537Z,19.85
2019-06-08T15:15:00.493Z,19.73
2019-06-08T15:16:13.075Z,19.71
2019-06-08T15:17:30.671Z,19.73
2019-06-08T15:18:43.602Z,19.6
2019-06-08T15:19:53.925Z,19.64
2019-06-08T15:21:07.906Z,19.64
2019-06-08T15:22:18.808Z,19.63
2019-06-08T15:23:34.984Z,19.71
2019-06-08T15:24:45.135Z,19.71
2019-06-08T15:25:55.471Z,19.78
2019-06-08T15:27:07.831Z,19.78
2019-06-08T15:28:20.683Z,19.83
2019-06-08T15:29:44.746Z,19.89
2019-06-08T15:30:59.667Z,19.8
2019-06-08T15:32:13.862Z,19.89
2019-06-08T15:33:30.934Z,19.86
2019-06-08T15:34:47.666Z,19.85
2019-06-08T15:36:03.121Z,19.82
2019-06-08T15:37:13.984Z,19.88
2019-06-08T15:38:30.104Z,19.92
2019-06-08T15:39:43.779Z,19.89
2019-06-08T15:41:00.106Z,19.95
2019-06-08T15:42:13.053Z,20.04
2019-06-08T15:43:29.086Z,20.11
2019-06-08T15:44:47.942Z,20.19
2019-06-08T15:46:01.476Z,20.28
2019-06-08T15:47:13.808Z,20.3
2019-06-08T15:48:29.283Z,20.2
2019-06-08T15:49:44.179Z,19.98
2019-06-08T15:51:00.760Z,19.98
2019-06-08T15:52:13.234Z,19.98
2019-06-08T15:53:26.433Z,20
2019-06-08T15:54:44.962Z,20.03